createdAt,value
2022-09-04T00:00:10.269Z,57.20
2022-09-04T00:03:26.340Z,57.41
2022-09-04T00:06:38.365Z,57.17
2022-09-04T00:09:52.701Z,57.34
2022-09-04T00:13:01.339Z,57.39
2022-09-04T00:16:08.993Z,57.57
2022-09-04T00:19:17.098Z,57.54
2022-09-04T00:22:29.807Z,57.82
2022-09-04T00:25:36.371Z,57.74
2022-09-04T00:28:42.516Z,58.32
2022-09-04T00:31:51.445Z,58.46
2022-09-04T00:35:04.879Z,58.31
2022-09-04T00:38:13.024Z,58.34
2022-09-04T00:41:25.110Z,58.51
2022-09-04T00:44:48.612Z,58.57
2022-09-04T00:48:10.684Z,58.62
2022-09-04T00:51:22.585Z,58.92
2022-09-04T00:54:36.106Z,59.15
2022-09-04T00:57:57.780Z,59.84
2022-09-04T01:01:01.340Z,60.10
2022-09-04T01:04:23.495Z,60.33
2022-09-04T01:07:50.352Z,60.00
2022-09-04T01:11:09.881Z,59.90
2022-09-04T01:14:19.942Z,60.25
2022-09-04T01:17:31.393Z,60.28
2022-09-04T01:20:53.818Z,60.21
2022-09-04T01:24:19.823Z,60.62
2022-09-04T01:27:28.583Z,61.08
2022-09-04T01:30:38.448Z,61.55
2022-09-04T01:33:53.480Z,61.80
2022-09-04T01:36:59.801Z,62.23
2022-09-04T01:40:15.810Z,62.04
2022-09-04T01:43:21.999Z,62.76
2022-09-04T01:46:40.224Z,62.87
2022-09-04T01:49:49.999Z,63.02
2022-09-04T01:52:59.609Z,62.86
2022-09-04T01:56:11.252Z,63.61
2022-09-04T01:59:26.763Z,63.91
2022-09-04T02:02:37.488Z,64.01
2022-09-04T02:05:50.109Z,64.37
2022-09-04T02:09:10.935Z,64.85
2022-09-04T02:12:36.002Z,65.64
2022-09-04T02:15:44.893Z,65.29
2022-09-04T02:18:56.888Z,66.29
2022-09-04T02:22:03.457Z,66.01
2022-09-04T02:25:17.286Z,66.43
2022-09-04T02:28:29.202Z,67.03
2022-09-04T02:31:38.772Z,67.78
2022-09-04T02:34:45.247Z,67.86
2022-09-04T02:38:01.388Z,68.34
2022-09-04T02:41:13.058Z,69.23
2022-09-04T02:44:28.515Z,69.59
2022-09-04T02:47:43.615Z,71.00
2022-09-04T02:51:03.111Z,71.62
2022-09-04T02:54:17.671Z,73.11
2022-09-04T02:57:33.682Z,73.84
2022-09-04T03:00:45.658Z,74.75
2022-09-04T03:04:00.900Z,74.89
2022-09-04T03:07:10.719Z,75.26
2022-09-04T03:10:18.201Z,75.89
2022-09-04T03:13:28.844Z,76.29
2022-09-04T03:16:40.414Z,77.51
2022-09-04T03:19:52.189Z,77.93
2022-09-04T03:23:00.104Z,79.32
2022-09-04T03:26:22.831Z,78.74
2022-09-04T03:29:33.474Z,79.65
2022-09-04T03:32:46.391Z,79.79
2022-09-04T03:35:56.344Z,79.95
2022-09-04T03:39:10.341Z,80.85
2022-09-04T03:42:33.599Z,81.32
2022-09-04T03:45:47.855Z,80.32
2022-09-04T03:49:05.609Z,80.61
2022-09-04T03:52:19.529Z,80.89
2022-09-04T03:55:36.366Z,81.70
2022-09-04T03:58:51.219Z,81.28
2022-09-04T04:02:04.437Z,81.97
2022-09-04T04:05:25.848Z,82.73
2022-09-04T04:08:47.307Z,83.08
2022-09-04T04:12:19.384Z,84.47
2022-09-04T04:15:31.891Z,85.13
2022-09-04T04:18:56.024Z,85.70
2022-09-04T04:22:16.472Z,85.91
2022-09-04T04:25:35.344Z,85.70
2022-09-04T04:29:14.181Z,85.78
2022-09-04T04:32:30.791Z,85.69
2022-09-04T04:35:42.338Z,85.34
2022-09-04T04:38:59.703Z,85.07
2022-09-04T04:42:17.182Z,85.20
2022-09-04T04:45:46.434Z,85.48
2022-09-04T04:49:34.798Z,84.73
2022-09-04T04:52:53.339Z,81.66
2022-09-04T04:56:00.779Z,78.37
2022-09-04T04:59:20.615Z,74.63
2022-09-04T05:02:31.050Z,73.27
2022-09-04T05:05:56.005Z,70.86
2022-09-04T05:09:11.108Z,70.71
2022-09-04T05:12:23.219Z,69.58
2022-09-04T05:15:33.140Z,69.96
2022-09-04T05:18:40.445Z,68.50
2022-09-04T05:21:50.698Z,67.30
2022-09-04T05:25:03.747Z,66.81
2022-09-04T05:28:20.458Z,65.92
2022-09-04T05:31:33.352Z,64.52
2022-09-04T05:34:58.307Z,63.66
2022-09-04T05:38:08.047Z,62.29
2022-09-04T05:41:22.915Z,61.53
2022-09-04T05:44:40.828Z,60.35
2022-09-04T05:47:54.944Z,59.48
2022-09-04T05:51:08.001Z,58.16
2022-09-04T05:54:25.573Z,58.03
2022-09-04T05:57:43.708Z,57.91
2022-09-04T06:01:00.861Z,57.65
2022-09-04T06:04:31.982Z,58.93
2022-09-04T06:07:41.613Z,59.58
2022-09-04T06:10:57.655Z,58.54
2022-09-04T06:14:16.713Z,59.88
2022-09-04T06:17:29.681Z,60.43
2022-09-04T06:20:54.189Z,62.33
2022-09-04T06:24:08.658Z,62.83
2022-09-04T06:27:25.921Z,62.17
2022-09-04T06:30:36.750Z,62.80
2022-09-04T06:33:57.220Z,61.95
2022-09-04T06:37:13.408Z,60.45
2022-09-04T06:40:30.685Z,60.96
2022-09-04T06:43:42.071Z,60.02
2022-09-04T06:46:55.528Z,58.85
2022-09-04T06:50:16.083Z,58.66
2022-09-04T06:53:31.827Z,57.56
2022-09-04T06:56:50.059Z,58.73
2022-09-04T07:00:05.874Z,59.02
2022-09-04T07:03:48.020Z,58.47
2022-09-04T07:06:55.733Z,57.87
2022-09-04T07:10:09.825Z,56.38
2022-09-04T07:13:26.152Z,56.41
2022-09-04T07:16:38.865Z,56.44
2022-09-04T07:19:58.861Z,55.89
2022-09-04T07:23:28.728Z,56.05
2022-09-04T07:26:38.716Z,55.37
2022-09-04T07:29:49.517Z,55.51
2022-09-04T07:32:57.465Z,55.66
2022-09-04T07:36:08.020Z,53.76
2022-09-04T07:39:20.168Z,54.54
2022-09-04T07:42:30.852Z,54.43
2022-09-04T07:45:37.933Z,53.31
2022-09-04T07:48:44.924Z,52.09
2022-09-04T07:51:54.674Z,52.77
2022-09-04T07:55:09.883Z,53.75
2022-09-04T07:58:31.565Z,52.63
2022-09-04T08:01:48.930Z,50.83
2022-09-04T08:05:11.282Z,50.73
2022-09-04T08:08:47.062Z,50.10
2022-09-04T08:12:10.587Z,49.45
2022-09-04T08:15:21.781Z,50.58
2022-09-04T08:18:45.013Z,49.74
2022-09-04T08:21:49.111Z,49.67
2022-09-04T08:25:17.847Z,50.43
2022-09-04T08:28:46.276Z,50.99
2022-09-04T08:32:04.112Z,49.14
2022-09-04T08:35:13.363Z,48.22
2022-09-04T08:38:31.789Z,48.17
2022-09-04T08:42:29.386Z,49.12
2022-09-04T08:46:00.838Z,50.49
2022-09-04T08:49:54.127Z,47.61
2022-09-04T08:53:46.236Z,46.58
2022-09-04T08:57:09.648Z,45.30
2022-09-04T09:00:15.935Z,46.37
2022-09-04T09:03:50.179Z,46.52
2022-09-04T09:07:20.963Z,46.32
2022-09-04T09:10:43.898Z,46.57
2022-09-04T09:14:23.349Z,46.93
2022-09-04T09:17:38.767Z,48.28
2022-09-04T09:20:50.192Z,46.44
2022-09-04T09:24:16.043Z,46.02
2022-09-04T09:27:43.410Z,45.98
2022-09-04T09:31:24.974Z,46.55
2022-09-04T09:35:05.104Z,45.12
2022-09-04T09:38:43.503Z,44.73
2022-09-04T09:42:27.210Z,44.43
2022-09-04T09:46:11.572Z,45.63
2022-09-04T09:50:01.182Z,44.91
2022-09-04T09:53:40.369Z,44.27
2022-09-04T09:57:07.199Z,44.54
2022-09-04T10:00:15.312Z,45.26
2022-09-04T10:03:49.435Z,44.44
2022-09-04T10:07:22.421Z,44.65
2022-09-04T10:10:46.764Z,46.11
2022-09-04T10:14:17.417Z,44.62
2022-09-04T10:18:04.427Z,43.00
2022-09-04T10:21:37.833Z,42.97
2022-09-04T10:25:16.808Z,43.14
2022-09-04T10:28:40.904Z,42.82
2022-09-04T10:32:15.951Z,44.10
2022-09-04T10:35:27.465Z,43.32
2022-09-04T10:39:01.315Z,42.43
2022-09-04T10:42:11.040Z,42.59
2022-09-04T10:45:27.034Z,41.05
2022-09-04T10:48:49.722Z,42.85
2022-09-04T10:52:17.420Z,43.05
2022-09-04T10:55:32.787Z,42.33
2022-09-04T10:58:49.586Z,42.54
2022-09-04T11:02:26.266Z,41.92
2022-09-04T11:06:16.338Z,42.31
2022-09-04T11:09:47.676Z,41.05
2022-09-04T11:13:11.312Z,40.53
2022-09-04T11:16:32.730Z,41.30
2022-09-04T11:19:53.377Z,41.48
2022-09-04T11:23:26.549Z,42.08
2022-09-04T11:27:07.932Z,41.55
2022-09-04T11:30:17.671Z,41.31
2022-09-04T11:33:56.789Z,41.92
2022-09-04T11:37:34.225Z,42.75
2022-09-04T11:41:10.101Z,40.94
2022-09-04T11:44:42.283Z,40.38
2022-09-04T11:48:00.518Z,40.85
2022-09-04T11:51:37.167Z,40.79
2022-09-04T11:55:05.952Z,40.37
2022-09-04T11:58:40.321Z,40.39
2022-09-04T12:02:08.370Z,41.01
2022-09-04T12:05:39.556Z,41.84
2022-09-04T12:09:01.058Z,40.55
2022-09-04T12:12:35.934Z,39.58
2022-09-04T12:16:17.267Z,38.09
2022-09-04T12:19:46.339Z,39.81
2022-09-04T12:23:13.375Z,39.37
2022-09-04T12:26:51.578Z,41.52
2022-09-04T12:30:13.584Z,41.21
2022-09-04T12:33:43.300Z,41.62
2022-09-04T12:37:11.416Z,40.35
2022-09-04T12:40:41.611Z,39.63
2022-09-04T12:43:57.221Z,39.95
2022-09-04T12:47:13.927Z,39.56
2022-09-04T12:50:28.042Z,40.53
2022-09-04T12:53:48.082Z,39.35
2022-09-04T12:57:11.615Z,37.80
2022-09-04T13:00:17.522Z,38.29
2022-09-04T13:03:30.305Z,37.38
2022-09-04T13:06:40.833Z,37.74
2022-09-04T13:09:55.873Z,37.49
2022-09-04T13:13:12.507Z,38.61
2022-09-04T13:16:23.972Z,38.60
2022-09-04T13:19:36.532Z,38.45
2022-09-04T13:22:47.431Z,37.56
2022-09-04T13:26:05.099Z,37.27
2022-09-04T13:29:19.405Z,36.71
2022-09-04T13:32:38.963Z,36.81
2022-09-04T13:36:01.103Z,37.36
2022-09-04T13:39:22.783Z,38.02
2022-09-04T13:42:52.528Z,37.89
2022-09-04T13:46:00.599Z,38.07
2022-09-04T13:49:07.760Z,37.88
2022-09-04T13:52:16.537Z,37.78
2022-09-04T13:55:23.352Z,36.92
2022-09-04T13:58:33.210Z,36.86
2022-09-04T14:01:46.186Z,37.30
2022-09-04T14:04:52.404Z,36.59
2022-09-04T14:08:03.964Z,36.81
2022-09-04T14:11:26.078Z,36.71
2022-09-04T14:15:05.549Z,36.51
2022-09-04T14:18:25.784Z,37.21
2022-09-04T14:21:44.064Z,37.15
2022-09-04T14:24:56.844Z,36.92
2022-09-04T14:28:07.693Z,37.19
2022-09-04T14:31:16.896Z,38.17
2022-09-04T14:34:36.187Z,37.79
2022-09-04T14:37:57.426Z,37.54
2022-09-04T14:41:13.291Z,37.59
2022-09-04T14:44:35.718Z,38.26
2022-09-04T14:47:44.993Z,38.59
2022-09-04T14:50:51.893Z,37.88
2022-09-04T14:53:56.121Z,38.77
2022-09-04T14:57:05.299Z,38.70
2022-09-04T15:00:14.870Z,39.44
2022-09-04T15:03:21.594Z,39.96
2022-09-04T15:06:32.887Z,39.35
2022-09-04T15:09:44.302Z,38.72
2022-09-04T15:12:55.685Z,37.79
2022-09-04T15:16:00.673Z,38.44
2022-09-04T15:19:12.709Z,39.11
2022-09-04T15:22:22.957Z,39.88
2022-09-04T15:25:58.343Z,40.24
2022-09-04T15:29:08.011Z,40.51
2022-09-04T15:32:13.783Z,40.34
2022-09-04T15:35:23.702Z,39.79
2022-09-04T15:38:28.005Z,40.06
2022-09-04T15:41:39.232Z,40.17
2022-09-04T15:44:46.117Z,40.91
2022-09-04T15:48:05.006Z,40.62
2022-09-04T15:51:21.749Z,41.04
2022-09-04T15:54:36.151Z,41.48
2022-09-04T15:57:57.419Z,41.11
2022-09-04T16:01:16.816Z,42.26
2022-09-04T16:04:28.160Z,41.83
2022-09-04T16:07:40.251Z,42.24
2022-09-04T16:10:53.330Z,42.42
2022-09-04T16:13:59.396Z,42.37
2022-09-04T16:17:07.058Z,42.75
2022-09-04T16:20:20.234Z,43.17
2022-09-04T16:23:30.724Z,42.99
2022-09-04T16:26:34.593Z,43.33
2022-09-04T16:29:41.907Z,43.04
2022-09-04T16:32:44.648Z,43.19
2022-09-04T16:35:51.839Z,44.09
2022-09-04T16:38:59.756Z,43.81
2022-09-04T16:42:13.539Z,44.29
2022-09-04T16:45:21.224Z,44.22
2022-09-04T16:48:43.123Z,44.52
2022-09-04T16:51:49.253Z,45.21
2022-09-04T16:54:55.205Z,44.70
2022-09-04T16:58:15.477Z,45.34
2022-09-04T17:01:22.732Z,45.22
2022-09-04T17:04:30.895Z,45.73
2022-09-04T17:07:39.155Z,46.36
2022-09-04T17:10:46.536Z,46.70
2022-09-04T17:13:58.724Z,47.02
2022-09-04T17:17:30.859Z,47.85
2022-09-04T17:23:35.455Z,48.38
2022-09-04T17:29:04.500Z,49.36
2022-09-04T17:29:12.860Z,49.85
2022-09-04T17:31:15.644Z,50.18
2022-09-04T17:40:37.145Z,50.12
2022-09-04T17:40:56.290Z,50.58
2022-09-04T17:41:59.234Z,51.07
2022-09-04T17:45:19.035Z,51.62
2022-09-04T17:48:25.298Z,52.29
2022-09-04T17:51:31.995Z,52.25
2022-09-04T17:54:40.869Z,52.84
2022-09-04T17:57:55.845Z,52.91
2022-09-04T18:01:14.662Z,53.62
2022-09-04T18:04:27.472Z,54.10
2022-09-04T18:08:07.570Z,54.49
2022-09-04T18:10:59.076Z,55.03
2022-09-04T18:14:11.197Z,55.47
2022-09-04T18:17:19.575Z,56.04
2022-09-04T18:20:37.733Z,56.42
2022-09-04T18:23:53.516Z,57.12
2022-09-04T18:27:02.055Z,57.73
2022-09-04T18:36:23.987Z,58.14
2022-09-04T18:37:24.913Z,59.08
2022-09-04T18:37:45.136Z,59.93
2022-09-04T18:42:09.896Z,59.80
2022-09-04T18:50:28.032Z,60.62
2022-09-04T18:50:51.125Z,61.76
2022-09-04T18:51:20.636Z,63.14
2022-09-04T18:54:32.352Z,64.56
2022-09-04T18:57:48.112Z,65.12
2022-09-04T19:00:56.889Z,66.17
2022-09-04T19:04:19.877Z,67.45
2022-09-04T19:07:31.875Z,68.63
2022-09-04T19:10:37.965Z,68.45
2022-09-04T19:13:47.895Z,69.69
2022-09-04T19:16:56.493Z,70.75
2022-09-04T19:20:04.505Z,71.54
2022-09-04T19:23:15.593Z,72.03
2022-09-04T19:26:26.332Z,72.58
2022-09-04T19:29:32.018Z,74.01
2022-09-04T19:32:41.620Z,74.18
2022-09-04T19:35:52.925Z,74.94
2022-09-04T19:45:57.246Z,74.84
2022-09-04T19:46:03.481Z,75.42
2022-09-04T19:52:25.524Z,80.04
2022-09-04T19:53:31.421Z,80.41
2022-09-04T19:57:31.002Z,80.91
2022-09-04T20:00:38.246Z,81.25
2022-09-04T20:03:37.547Z,81.02
2022-09-04T20:06:47.776Z,80.84
2022-09-04T20:09:53.418Z,81.59
2022-09-04T20:13:03.722Z,82.81
2022-09-04T20:16:21.734Z,82.89
2022-09-04T20:19:30.090Z,84.02
2022-09-04T20:22:39.612Z,84.05
2022-09-04T20:25:51.811Z,83.90
2022-09-04T20:29:00.607Z,85.54
2022-09-04T20:32:12.972Z,86.19
2022-09-04T20:35:33.008Z,86.35
2022-09-04T20:38:46.011Z,86.09
2022-09-04T20:41:52.311Z,86.92
2022-09-04T20:45:59.187Z,86.74
2022-09-04T20:52:51.378Z,87.86
2022-09-04T20:53:05.371Z,89.04
2022-09-04T20:55:24.385Z,88.05
2022-09-04T21:02:11.138Z,87.78
2022-09-04T21:03:21.362Z,88.13
2022-09-04T21:05:46.120Z,87.75
2022-09-04T21:09:00.217Z,88.19
2022-09-04T21:12:16.553Z,89.14
2022-09-04T21:15:28.206Z,88.16
2022-09-04T21:19:28.288Z,87.05
2022-09-04T21:22:36.364Z,86.36
2022-09-04T21:25:51.321Z,86.86
2022-09-04T21:29:11.219Z,86.54
2022-09-04T21:32:31.395Z,87.77
2022-09-04T21:35:39.002Z,88.93
2022-09-04T21:39:05.721Z,89.51
2022-09-04T21:42:34.577Z,90.04
2022-09-04T21:45:53.669Z,90.17
2022-09-04T21:49:10.233Z,90.46
2022-09-04T21:52:55.769Z,90.13
2022-09-04T21:59:56.876Z,88.75
2022-09-04T22:02:44.244Z,88.16
2022-09-04T22:03:36.391Z,89.56
2022-09-04T22:07:17.939Z,89.99
2022-09-04T22:13:37.960Z,90.48
2022-09-04T22:14:04.917Z,89.93
2022-09-04T22:17:24.454Z,89.84
2022-09-04T22:20:52.281Z,91.01
2022-09-04T22:24:15.757Z,91.91
2022-09-04T22:28:02.567Z,92.30
2022-09-04T22:31:37.556Z,93.31
2022-09-04T22:35:02.690Z,95.04
2022-09-04T22:38:34.672Z,95.24
2022-09-04T22:42:05.374Z,95.53
2022-09-04T22:45:41.092Z,95.88
2022-09-04T22:49:12.146Z,95.47
2022-09-04T22:52:29.856Z,95.77
2022-09-04T22:56:23.254Z,96.39
2022-09-04T22:59:31.138Z,96.65
2022-09-04T23:03:10.022Z,96.38
2022-09-04T23:09:20.134Z,95.24
2022-09-04T23:13:50.644Z,94.79
2022-09-04T23:14:07.655Z,94.25
2022-09-04T23:17:23.418Z,95.39
2022-09-04T23:26:35.571Z,94.45
2022-09-04T23:26:50.903Z,94.12
2022-09-04T23:28:27.143Z,94.65
2022-09-04T23:32:06.836Z,94.65
2022-09-04T23:35:16.732Z,95.34
2022-09-04T23:38:41.862Z,96.39
2022-09-04T23:41:53.868Z,97.15
2022-09-04T23:45:14.506Z,98.23
2022-09-04T23:48:42.338Z,97.50
2022-09-04T23:51:51.994Z,96.28
2022-09-04T23:55:07.959Z,96.16
2022-09-04T23:58:52.243Z,95.91
